createdAt,value
2022-08-30T00:02:19.469Z,59.50
2022-08-30T00:04:46.338Z,59.50
2022-08-30T00:07:13.101Z,59.66
2022-08-30T00:09:39.817Z,59.72
2022-08-30T00:12:06.769Z,59.70
2022-08-30T00:14:33.861Z,59.72
2022-08-30T00:17:00.599Z,60.04
2022-08-30T00:19:27.302Z,60.09
2022-08-30T00:21:54.074Z,60.10
2022-08-30T00:24:20.935Z,59.99
2022-08-30T00:26:47.535Z,59.92
2022-08-30T00:29:14.625Z,60.37
2022-08-30T00:31:41.370Z,60.18
2022-08-30T00:34:08.105Z,60.28
2022-08-30T00:36:34.983Z,60.27
2022-08-30T00:39:01.728Z,60.51
2022-08-30T00:41:28.871Z,60.20
2022-08-30T00:43:55.932Z,60.42
2022-08-30T00:46:22.804Z,60.27
2022-08-30T00:48:50.784Z,60.57
2022-08-30T00:51:19.812Z,60.65
2022-08-30T00:53:54.906Z,60.42
2022-08-30T00:56:25.272Z,60.38
2022-08-30T00:58:55.881Z,60.68
2022-08-30T01:01:23.737Z,60.60
2022-08-30T01:03:51.120Z,60.55
2022-08-30T01:06:18.197Z,60.75
2022-08-30T01:08:46.583Z,60.83
2022-08-30T01:11:14.896Z,61.44
2022-08-30T01:13:41.526Z,61.56
2022-08-30T01:16:08.647Z,61.20
2022-08-30T01:18:37.321Z,61.04
2022-08-30T01:21:33.203Z,61.57
2022-08-30T01:24:01.543Z,61.36
2022-08-30T01:26:29.347Z,62.02
2022-08-30T01:29:02.102Z,61.24
2022-08-30T01:31:29.053Z,61.51
2022-08-30T01:33:55.739Z,61.43
2022-08-30T01:36:22.759Z,61.53
2022-08-30T01:38:53.665Z,61.73
2022-08-30T01:41:24.262Z,62.06
2022-08-30T01:43:54.105Z,62.22
2022-08-30T01:46:24.605Z,62.15
2022-08-30T01:48:54.207Z,62.28
2022-08-30T01:51:24.541Z,62.16
2022-08-30T01:53:51.463Z,62.50
2022-08-30T01:56:18.529Z,62.50
2022-08-30T01:58:46.162Z,62.55
2022-08-30T02:01:14.974Z,62.68
2022-08-30T02:03:43.817Z,62.92
2022-08-30T02:06:14.309Z,62.65
2022-08-30T02:08:41.615Z,62.81
2022-08-30T02:11:09.554Z,62.97
2022-08-30T02:13:37.716Z,62.98
2022-08-30T02:16:06.142Z,63.12
2022-08-30T02:18:33.185Z,63.76
2022-08-30T02:21:00.866Z,63.15
2022-08-30T02:23:27.884Z,63.14
2022-08-30T02:25:54.816Z,63.08
2022-08-30T02:28:21.635Z,63.27
2022-08-30T02:30:52.833Z,63.54
2022-08-30T02:33:19.668Z,63.54
2022-08-30T02:35:46.561Z,63.61
2022-08-30T02:38:14.142Z,63.56
2022-08-30T02:40:40.973Z,63.81
2022-08-30T02:43:07.760Z,63.61
2022-08-30T02:45:34.526Z,63.87
2022-08-30T02:48:01.278Z,64.12
2022-08-30T02:50:28.158Z,64.09
2022-08-30T02:52:55.426Z,64.11
2022-08-30T02:55:23.093Z,64.22
2022-08-30T02:57:50.167Z,64.00
2022-08-30T03:00:20.329Z,64.18
2022-08-30T03:02:47.533Z,63.97
2022-08-30T03:05:16.758Z,64.19
2022-08-30T03:07:46.013Z,64.29
2022-08-30T03:10:13.929Z,64.22
2022-08-30T03:12:41.548Z,64.23
2022-08-30T03:15:10.983Z,64.51
2022-08-30T03:17:37.606Z,64.39
2022-08-30T03:20:05.915Z,64.56
2022-08-30T03:22:32.915Z,64.63
2022-08-30T03:25:01.418Z,64.63
2022-08-30T03:27:29.417Z,64.56
2022-08-30T03:29:57.010Z,64.57
2022-08-30T03:32:24.328Z,64.34
2022-08-30T03:34:51.188Z,64.76
2022-08-30T03:37:18.080Z,64.71
2022-08-30T03:39:45.615Z,64.76
2022-08-30T03:42:13.319Z,64.71
2022-08-30T03:44:40.057Z,64.46
2022-08-30T03:47:07.274Z,64.71
2022-08-30T03:49:34.166Z,64.95
2022-08-30T03:52:00.888Z,64.84
2022-08-30T03:54:27.590Z,65.00
2022-08-30T03:56:54.335Z,64.87
2022-08-30T03:59:21.121Z,65.28
2022-08-30T04:01:48.024Z,65.09
2022-08-30T04:04:20.053Z,65.07
2022-08-30T04:06:47.534Z,64.97
2022-08-30T04:09:14.289Z,65.08
2022-08-30T04:11:40.923Z,65.29
2022-08-30T04:14:07.823Z,65.01
2022-08-30T04:16:34.728Z,65.21
2022-08-30T04:19:01.459Z,65.30
2022-08-30T04:21:28.398Z,65.42
2022-08-30T04:23:55.157Z,65.67
2022-08-30T04:26:21.860Z,65.54
2022-08-30T04:28:48.717Z,65.65
2022-08-30T04:31:17.147Z,66.00
2022-08-30T04:33:44.590Z,66.70
2022-08-30T04:36:13.824Z,65.66
2022-08-30T04:38:42.193Z,65.66
2022-08-30T04:41:10.339Z,66.86
2022-08-30T04:43:37.141Z,65.81
2022-08-30T04:46:07.800Z,66.17
2022-08-30T04:48:36.348Z,66.32
2022-08-30T04:51:06.768Z,66.19
2022-08-30T04:53:34.428Z,66.42
2022-08-30T04:56:02.049Z,66.29
2022-08-30T04:58:28.679Z,66.82
2022-08-30T05:00:55.554Z,66.80
2022-08-30T05:03:22.309Z,66.64
2022-08-30T05:05:50.417Z,67.00
2022-08-30T05:08:24.475Z,66.81
2022-08-30T05:10:52.521Z,66.92
2022-08-30T05:13:20.842Z,66.73
2022-08-30T05:15:51.205Z,66.91
2022-08-30T05:18:21.574Z,66.96
2022-08-30T05:20:48.127Z,67.13
2022-08-30T05:23:14.858Z,67.08
2022-08-30T05:25:42.909Z,67.10
2022-08-30T05:28:09.681Z,67.42
2022-08-30T05:30:37.275Z,67.35
2022-08-30T05:33:06.638Z,67.32
2022-08-30T05:35:33.356Z,67.45
2022-08-30T05:38:00.075Z,67.51
2022-08-30T05:40:26.909Z,67.54
2022-08-30T05:42:56.065Z,67.83
2022-08-30T05:45:22.778Z,67.74
2022-08-30T05:47:49.630Z,67.75
2022-08-30T05:50:16.632Z,67.64
2022-08-30T05:52:44.654Z,68.01
2022-08-30T05:55:12.785Z,68.00
2022-08-30T05:57:40.333Z,68.83
2022-08-30T06:00:10.216Z,67.80
2022-08-30T06:02:37.188Z,68.01
2022-08-30T06:05:05.284Z,68.16
2022-08-30T06:07:32.404Z,68.13
2022-08-30T06:09:59.224Z,68.16
2022-08-30T06:12:26.123Z,68.24
2022-08-30T06:14:53.613Z,68.35
2022-08-30T06:17:20.730Z,68.59
2022-08-30T06:19:47.429Z,68.63
2022-08-30T06:22:14.243Z,68.65
2022-08-30T06:24:56.931Z,68.68
2022-08-30T06:27:23.956Z,68.75
2022-08-30T06:29:53.859Z,68.83
2022-08-30T06:32:20.621Z,68.96
2022-08-30T06:34:48.361Z,68.84
2022-08-30T06:37:29.170Z,69.11
2022-08-30T06:39:58.177Z,68.78
2022-08-30T06:42:30.743Z,68.88
2022-08-30T06:45:02.017Z,69.02
2022-08-30T06:47:29.581Z,69.12
2022-08-30T06:49:57.535Z,69.08
2022-08-30T06:52:25.171Z,69.21
2022-08-30T06:54:53.729Z,69.01
2022-08-30T06:57:20.488Z,69.32
2022-08-30T06:59:47.201Z,69.12
2022-08-30T07:02:13.885Z,69.17
2022-08-30T07:04:40.753Z,69.29
2022-08-30T07:07:10.772Z,69.44
2022-08-30T07:09:43.267Z,69.38
2022-08-30T07:12:11.962Z,69.57
2022-08-30T07:14:39.026Z,69.51
2022-08-30T07:17:35.839Z,69.62
2022-08-30T07:20:04.702Z,69.90
2022-08-30T07:22:33.554Z,69.76
2022-08-30T07:25:00.271Z,69.76
2022-08-30T07:27:26.964Z,69.67
2022-08-30T07:29:53.799Z,69.99
2022-08-30T07:32:20.457Z,70.24
2022-08-30T07:34:47.244Z,70.04
2022-08-30T07:37:18.399Z,70.24
2022-08-30T07:39:47.964Z,70.01
2022-08-30T07:42:15.309Z,69.90
2022-08-30T07:44:42.138Z,70.09
2022-08-30T07:47:08.950Z,70.08
2022-08-30T07:49:37.076Z,70.28
2022-08-30T07:52:04.338Z,70.27
2022-08-30T07:54:31.270Z,69.81
2022-08-30T07:56:58.101Z,69.92
2022-08-30T07:59:25.114Z,69.86
2022-08-30T08:01:51.955Z,70.19
2022-08-30T08:04:19.479Z,69.72
2022-08-30T08:06:47.009Z,70.15
2022-08-30T08:09:13.994Z,69.89
2022-08-30T08:11:41.493Z,69.82
2022-08-30T08:14:09.045Z,69.87
2022-08-30T08:16:37.190Z,69.55
2022-08-30T08:19:08.789Z,69.83
2022-08-30T08:21:36.362Z,69.50
2022-08-30T08:24:04.056Z,69.62
2022-08-30T08:26:31.137Z,69.71
2022-08-30T08:28:58.009Z,69.15
2022-08-30T08:31:33.547Z,69.12
2022-08-30T08:34:02.971Z,68.71
2022-08-30T08:36:31.426Z,68.77
2022-08-30T08:38:58.671Z,68.70
2022-08-30T08:41:38.118Z,68.52
2022-08-30T08:44:13.753Z,68.34
2022-08-30T08:47:11.662Z,68.05
2022-08-30T08:49:42.886Z,68.02
2022-08-30T08:52:37.506Z,67.56
2022-08-30T08:55:12.555Z,67.57
2022-08-30T08:57:39.842Z,67.38
2022-08-30T09:00:11.830Z,67.41
2022-08-30T09:03:03.329Z,67.13
2022-08-30T09:05:36.834Z,66.77
2022-08-30T09:08:09.868Z,67.20
2022-08-30T09:10:49.809Z,67.03
2022-08-30T09:13:18.856Z,66.54
2022-08-30T09:15:47.390Z,66.27
2022-08-30T09:18:19.692Z,66.63
2022-08-30T09:20:50.298Z,66.30
2022-08-30T09:23:17.488Z,65.87
2022-08-30T09:25:58.557Z,65.89
2022-08-30T09:28:29.086Z,65.89
2022-08-30T09:31:17.923Z,65.50
2022-08-30T09:34:08.896Z,65.28
2022-08-30T09:36:46.054Z,65.07
2022-08-30T09:39:31.558Z,65.09
2022-08-30T09:42:19.384Z,64.59
2022-08-30T09:44:46.181Z,64.89
2022-08-30T09:47:41.034Z,64.58
2022-08-30T09:50:11.974Z,63.81
2022-08-30T09:52:55.518Z,63.66
2022-08-30T09:56:00.998Z,63.22
2022-08-30T09:58:30.042Z,63.42
2022-08-30T10:01:22.905Z,62.98
2022-08-30T10:04:01.927Z,63.15
2022-08-30T10:06:44.502Z,62.77
2022-08-30T10:09:17.488Z,62.26
2022-08-30T10:12:00.542Z,61.99
2022-08-30T10:14:42.279Z,61.82
2022-08-30T10:17:12.371Z,61.71
2022-08-30T10:19:58.478Z,61.47
2022-08-30T10:22:46.737Z,61.08
2022-08-30T10:25:19.255Z,61.05
2022-08-30T10:28:09.932Z,60.74
2022-08-30T10:30:40.810Z,61.14
2022-08-30T10:33:13.439Z,61.09
2022-08-30T10:35:50.429Z,60.75
2022-08-30T10:38:25.881Z,60.35
2022-08-30T10:41:16.000Z,60.62
2022-08-30T10:44:01.233Z,59.94
2022-08-30T10:46:46.337Z,59.57
2022-08-30T10:49:19.693Z,59.83
2022-08-30T10:52:07.966Z,59.40
2022-08-30T10:54:52.336Z,58.95
2022-08-30T10:57:20.027Z,59.18
2022-08-30T11:00:16.749Z,58.52
2022-08-30T11:03:19.945Z,58.20
2022-08-30T11:06:17.419Z,58.25
2022-08-30T11:09:02.300Z,58.24
2022-08-30T11:11:45.967Z,58.12
2022-08-30T11:14:17.626Z,58.29
2022-08-30T11:16:48.409Z,57.93
2022-08-30T11:19:34.941Z,57.47
2022-08-30T11:22:15.405Z,57.38
2022-08-30T11:25:00.715Z,57.34
2022-08-30T11:27:59.812Z,57.05
2022-08-30T11:30:27.160Z,57.64
2022-08-30T11:33:12.995Z,57.27
2022-08-30T11:35:52.711Z,57.33
2022-08-30T11:38:25.668Z,57.24
2022-08-30T11:40:55.111Z,57.25
2022-08-30T11:43:34.087Z,56.79
2022-08-30T11:46:36.253Z,56.58
2022-08-30T11:49:15.610Z,56.92
2022-08-30T11:55:23.382Z,56.89
2022-08-30T11:57:56.343Z,56.33
2022-08-30T12:01:32.057Z,56.19
2022-08-30T12:04:16.738Z,56.17
2022-08-30T12:06:59.187Z,56.09
2022-08-30T12:09:26.592Z,55.80
2022-08-30T12:12:30.528Z,55.58
2022-08-30T12:14:57.928Z,55.36
2022-08-30T12:18:17.223Z,54.84
2022-08-30T12:20:50.468Z,55.01
2022-08-30T12:23:25.475Z,54.64
2022-08-30T12:26:10.938Z,53.95
2022-08-30T12:28:38.195Z,54.65
2022-08-30T12:31:16.848Z,54.82
2022-08-30T12:33:47.622Z,54.39
2022-08-30T12:36:31.470Z,54.59
2022-08-30T12:39:21.319Z,54.36
2022-08-30T12:41:48.336Z,54.74
2022-08-30T12:44:26.239Z,54.35
2022-08-30T12:47:00.165Z,54.61
2022-08-30T12:49:30.386Z,54.29
2022-08-30T12:52:35.281Z,54.11
2022-08-30T12:55:36.112Z,53.98
2022-08-30T12:58:10.038Z,53.93
2022-08-30T13:00:39.911Z,53.60
2022-08-30T13:03:26.613Z,52.96
2022-08-30T13:05:57.514Z,52.95
2022-08-30T13:08:38.231Z,52.69
2022-08-30T13:11:24.949Z,53.31
2022-08-30T13:14:21.982Z,52.43
2022-08-30T13:16:49.338Z,52.53
2022-08-30T13:19:33.174Z,52.24
2022-08-30T13:22:00.936Z,52.36
2022-08-30T13:24:28.716Z,52.43
2022-08-30T13:27:11.531Z,52.43
2022-08-30T13:29:38.466Z,52.88
2022-08-30T13:32:05.185Z,52.40
2022-08-30T13:34:35.335Z,52.39
2022-08-30T13:37:03.357Z,51.95
2022-08-30T13:39:31.346Z,51.87
2022-08-30T13:42:31.794Z,51.81
2022-08-30T13:44:45.095Z,51.78
2022-08-30T13:50:03.125Z,52.09
2022-08-30T13:52:29.946Z,51.81
2022-08-30T13:54:57.664Z,52.34
2022-08-30T14:00:19.599Z,52.14
2022-08-30T14:02:53.927Z,52.22
2022-08-30T14:10:58.251Z,50.77
2022-08-30T14:13:29.330Z,50.09
2022-08-30T14:18:45.082Z,50.13
2022-08-30T14:21:11.945Z,50.41
2022-08-30T14:23:38.701Z,50.21
2022-08-30T14:26:21.302Z,50.85
2022-08-30T14:28:51.521Z,51.09
2022-08-30T14:31:20.005Z,50.96
2022-08-30T14:33:46.895Z,51.04
2022-08-30T14:36:15.446Z,51.48
2022-08-30T14:38:43.646Z,51.35
2022-08-30T14:41:11.149Z,51.53
2022-08-30T14:43:40.274Z,51.48
2022-08-30T14:46:08.694Z,51.63
2022-08-30T14:48:36.707Z,51.56
2022-08-30T14:51:11.114Z,51.96
2022-08-30T14:53:38.003Z,51.97
2022-08-30T14:56:13.471Z,51.74
2022-08-30T14:58:40.513Z,51.75
2022-08-30T15:01:09.701Z,51.70
2022-08-30T15:03:38.141Z,51.56
2022-08-30T15:06:06.370Z,51.50
2022-08-30T15:08:34.614Z,51.33
2022-08-30T15:11:01.675Z,51.37
2022-08-30T15:13:28.865Z,51.38
2022-08-30T15:15:56.760Z,51.59
2022-08-30T15:18:24.604Z,51.38
2022-08-30T15:20:52.193Z,51.54
2022-08-30T15:23:19.491Z,51.36
2022-08-30T15:25:51.587Z,51.40
2022-08-30T15:28:19.328Z,50.84
2022-08-30T15:30:46.243Z,50.85
2022-08-30T15:33:13.021Z,50.60
2022-08-30T15:35:41.551Z,50.34
2022-08-30T15:38:08.283Z,50.28
2022-08-30T15:40:39.517Z,49.93
2022-08-30T15:43:06.378Z,49.55
2022-08-30T15:45:33.348Z,49.74
2022-08-30T15:48:00.879Z,49.85
2022-08-30T15:50:28.530Z,49.65
2022-08-30T15:52:55.409Z,50.44
2022-08-30T15:55:22.237Z,50.23
2022-08-30T15:57:49.015Z,50.81
2022-08-30T16:00:16.441Z,50.40
2022-08-30T16:02:44.002Z,50.33
2022-08-30T16:05:11.011Z,50.56
2022-08-30T16:07:40.798Z,50.92
2022-08-30T16:10:08.905Z,51.31
2022-08-30T16:12:35.639Z,51.07
2022-08-30T16:15:02.310Z,51.23
2022-08-30T16:17:29.201Z,51.21
2022-08-30T16:19:58.939Z,51.68
2022-08-30T16:22:26.583Z,51.52
2022-08-30T16:24:53.647Z,51.42
2022-08-30T16:27:21.214Z,51.16
2022-08-30T16:29:48.352Z,51.24
2022-08-30T16:32:18.070Z,51.26
2022-08-30T16:34:45.205Z,50.97
2022-08-30T16:37:11.836Z,50.35
2022-08-30T16:39:38.546Z,50.78
2022-08-30T16:42:06.859Z,50.07
2022-08-30T16:44:33.585Z,50.12
2022-08-30T16:47:01.504Z,49.72
2022-08-30T16:49:28.437Z,49.52
2022-08-30T16:51:55.273Z,50.64
2022-08-30T16:54:22.528Z,50.90
2022-08-30T16:56:49.369Z,51.60
2022-08-30T16:59:16.771Z,51.52
2022-08-30T17:01:44.873Z,51.34
2022-08-30T17:04:13.827Z,52.10
2022-08-30T17:06:45.987Z,51.69
2022-08-30T17:09:15.117Z,52.27
2022-08-30T17:11:42.055Z,52.62
2022-08-30T17:14:09.856Z,53.21
2022-08-30T17:16:37.996Z,53.13
2022-08-30T17:19:07.359Z,53.43
2022-08-30T17:21:34.898Z,53.89
2022-08-30T17:24:03.734Z,53.92
2022-08-30T17:26:32.969Z,54.21
2022-08-30T17:29:00.156Z,54.56
2022-08-30T17:31:30.876Z,54.45
2022-08-30T17:34:04.148Z,54.76
2022-08-30T17:36:36.546Z,54.78
2022-08-30T17:39:10.660Z,55.00
2022-08-30T17:41:39.952Z,55.61
2022-08-30T17:44:11.214Z,55.60
2022-08-30T17:46:38.636Z,55.67
2022-08-30T17:49:05.842Z,55.78
2022-08-30T17:51:33.296Z,56.14
2022-08-30T17:54:00.336Z,56.27
2022-08-30T17:56:34.164Z,55.92
2022-08-30T17:59:04.919Z,56.25
2022-08-30T18:01:31.952Z,55.99
2022-08-30T18:04:02.006Z,55.99
2022-08-30T18:06:33.475Z,55.94
2022-08-30T18:09:01.039Z,55.75
2022-08-30T18:11:27.847Z,55.70
2022-08-30T18:13:54.805Z,55.68
2022-08-30T18:16:26.226Z,55.77
2022-08-30T18:18:57.361Z,55.78
2022-08-30T18:21:25.238Z,55.73
2022-08-30T18:23:52.437Z,56.04
2022-08-30T18:26:19.222Z,56.19
2022-08-30T18:28:51.641Z,56.22
2022-08-30T18:31:18.296Z,56.18
2022-08-30T18:33:45.472Z,56.70
2022-08-30T18:36:12.953Z,56.59
2022-08-30T18:38:42.442Z,56.52
2022-08-30T18:41:13.976Z,56.71
2022-08-30T18:43:41.403Z,56.98
2022-08-30T18:46:13.745Z,56.79
2022-08-30T18:48:41.539Z,57.11
2022-08-30T18:51:18.065Z,57.20
2022-08-30T18:53:45.891Z,57.37
2022-08-30T18:56:16.556Z,57.36
2022-08-30T18:58:44.982Z,57.38
2022-08-30T19:01:12.627Z,57.53
2022-08-30T19:03:39.571Z,57.35
2022-08-30T19:06:09.053Z,57.55
2022-08-30T19:08:37.218Z,57.61
2022-08-30T19:11:05.099Z,57.65
2022-08-30T19:13:35.149Z,57.67
2022-08-30T19:16:03.145Z,57.65
2022-08-30T19:18:29.837Z,57.54
2022-08-30T19:20:56.634Z,57.73
2022-08-30T19:23:25.669Z,57.80
2022-08-30T19:25:53.515Z,57.85
2022-08-30T19:28:21.306Z,57.86
2022-08-30T19:30:48.084Z,57.95
2022-08-30T19:33:14.742Z,58.13
2022-08-30T19:35:41.513Z,58.30
2022-08-30T19:38:08.972Z,58.70
2022-08-30T19:40:35.631Z,58.99
2022-08-30T19:43:02.374Z,59.01
2022-08-30T19:45:31.449Z,59.08
2022-08-30T19:48:00.837Z,58.90
2022-08-30T19:50:28.113Z,59.40
2022-08-30T19:52:55.618Z,59.07
2022-08-30T19:55:28.593Z,59.38
2022-08-30T19:57:57.398Z,59.26
2022-08-30T20:00:24.058Z,59.52
2022-08-30T20:02:51.371Z,59.46
2022-08-30T20:05:19.466Z,59.54
2022-08-30T20:07:51.182Z,59.51
2022-08-30T20:10:20.631Z,59.44
2022-08-30T20:12:49.840Z,59.72
2022-08-30T20:15:17.841Z,59.58
2022-08-30T20:18:13.522Z,59.56
2022-08-30T20:20:37.479Z,59.47
2022-08-30T20:23:06.182Z,59.40
2022-08-30T20:25:33.702Z,59.62
2022-08-30T20:28:00.574Z,59.82
2022-08-30T20:30:27.553Z,59.54
2022-08-30T20:32:54.366Z,59.25
2022-08-30T20:35:23.645Z,59.34
2022-08-30T20:37:51.127Z,59.19
2022-08-30T20:40:18.122Z,59.44
2022-08-30T20:42:46.362Z,59.33
2022-08-30T20:45:14.417Z,59.89
2022-08-30T20:47:42.859Z,59.22
2022-08-30T20:50:13.908Z,59.33
2022-08-30T20:52:41.732Z,59.24
2022-08-30T20:55:10.144Z,59.39
2022-08-30T20:57:36.965Z,59.36
2022-08-30T21:00:11.061Z,59.21
2022-08-30T21:02:46.465Z,59.19
2022-08-30T21:05:16.356Z,59.50
2022-08-30T21:07:45.714Z,59.73
2022-08-30T21:10:13.290Z,59.16
2022-08-30T21:12:40.347Z,59.11
2022-08-30T21:15:33.892Z,59.55
2022-08-30T21:17:54.364Z,59.59
2022-08-30T21:20:21.180Z,59.40
2022-08-30T21:22:47.742Z,59.54
2022-08-30T21:25:14.606Z,59.54
2022-08-30T21:27:43.699Z,59.38
2022-08-30T21:30:12.674Z,59.53
2022-08-30T21:32:40.069Z,59.32
2022-08-30T21:35:25.748Z,59.43
2022-08-30T21:37:53.494Z,59.60
2022-08-30T21:40:20.849Z,59.51
2022-08-30T21:42:47.522Z,59.61
2022-08-30T21:45:15.566Z,59.94
2022-08-30T21:47:42.713Z,59.61
2022-08-30T21:50:09.962Z,60.07
2022-08-30T21:52:36.781Z,59.67
2022-08-30T21:55:04.658Z,60.51
2022-08-30T21:57:31.342Z,60.45
2022-08-30T21:59:58.230Z,60.29
2022-08-30T22:02:25.019Z,60.34
2022-08-30T22:04:51.726Z,60.38
2022-08-30T22:07:18.457Z,61.03
2022-08-30T22:09:45.169Z,61.09
2022-08-30T22:12:11.896Z,61.08
2022-08-30T22:14:38.702Z,61.29
2022-08-30T22:17:05.603Z,61.11
2022-08-30T22:19:33.871Z,61.37
2022-08-30T22:22:01.682Z,61.60
2022-08-30T22:24:32.409Z,61.31
2022-08-30T22:27:01.399Z,61.66
2022-08-30T22:29:29.036Z,61.54
2022-08-30T22:31:55.823Z,61.36
2022-08-30T22:34:22.967Z,61.82
2022-08-30T22:36:49.738Z,62.01
2022-08-30T22:39:16.497Z,61.65
2022-08-30T22:41:44.245Z,62.17
2022-08-30T22:44:11.679Z,62.41
2022-08-30T22:46:39.065Z,61.96
2022-08-30T22:49:10.958Z,62.42
2022-08-30T22:51:39.497Z,62.30
2022-08-30T22:54:07.843Z,62.45
2022-08-30T22:56:35.721Z,62.67
2022-08-30T22:59:03.170Z,62.42
2022-08-30T23:01:37.730Z,62.52
2022-08-30T23:04:06.629Z,62.55
2022-08-30T23:06:33.884Z,62.98
2022-08-30T23:09:00.679Z,62.61
2022-08-30T23:11:27.619Z,63.00
2022-08-30T23:13:55.998Z,62.78
2022-08-30T23:16:23.254Z,63.10
2022-08-30T23:18:50.145Z,63.24
2022-08-30T23:21:20.868Z,63.28
2022-08-30T23:24:06.884Z,63.42
2022-08-30T23:26:51.993Z,63.21
2022-08-30T23:29:37.600Z,63.28
2022-08-30T23:32:22.882Z,63.09
2022-08-30T23:35:08.083Z,63.37
2022-08-30T23:37:53.506Z,63.32
2022-08-30T23:40:40.167Z,62.88
2022-08-30T23:43:26.542Z,63.40
2022-08-30T23:46:18.890Z,63.28
2022-08-30T23:49:07.066Z,62.98
2022-08-30T23:51:53.662Z,63.47
2022-08-30T23:54:39.084Z,63.27
2022-08-30T23:57:24.874Z,62.91
